Time;durP1;ratioP1;P1;durP2;ratioP2;P2;SDS_P1;SDS_P2;PMS_P1;PMS_P2;Temp;Humidity;BMP_temperature;BMP_pressure;BME280_temperature;BME280_humidity;BME280_pressure;Samples;Min_cycle;Max_cycle;Signal;HPM_P1;HPM_P2
2023/10/21 00:02:02;;;;;;;1.67;1.57;;;6.60;1.00;;;;;;5033274;28;20398;-64
2023/10/21 00:04:29;;;;;;;2.67;2.47;;;6.60;1.00;;;;;;5032673;28;20408;-63
2023/10/21 00:06:54;;;;;;;1.70;1.60;;;6.60;1.00;;;;;;5032546;28;20414;-63
2023/10/21 00:09:20;;;;;;;2.03;1.83;;;6.60;1.00;;;;;;5031535;28;20414;-65
2023/10/21 00:11:46;;;;;;;1.83;1.73;;;6.60;1.00;;;;;;5032115;28;20188;-65
2023/10/21 00:14:12;;;;;;;1.90;1.80;;;6.60;1.00;;;;;;5032971;28;20489;-63
2023/10/21 00:16:38;;;;;;;2.00;1.90;;;6.60;1.00;;;;;;5032057;28;20187;-63
2023/10/21 00:19:04;;;;;;;2.03;1.93;;;6.60;1.00;;;;;;5033112;28;20395;-66
2023/10/21 00:21:30;;;;;;;2.10;2.00;;;6.60;1.00;;;;;;5033087;28;20537;-63
2023/10/21 00:23:55;;;;;;;2.30;2.20;;;6.60;1.00;;;;;;5032642;28;20191;-65
2023/10/21 00:26:22;;;;;;;1.93;1.83;;;6.70;1.00;;;;;;5031924;28;20450;-64
2023/10/21 00:28:47;;;;;;;1.80;1.70;;;6.70;1.00;;;;;;5032982;28;20176;-64
2023/10/21 00:31:13;;;;;;;2.23;2.13;;;6.70;1.00;;;;;;5032796;28;20398;-63
2023/10/21 00:33:39;;;;;;;1.90;1.80;;;6.60;1.00;;;;;;5032815;28;20628;-64
2023/10/21 00:36:05;;;;;;;2.00;1.90;;;6.70;1.00;;;;;;5031906;28;20212;-63
2023/10/21 00:38:30;;;;;;;2.30;2.20;;;6.70;1.00;;;;;;5031730;28;20262;-63
2023/10/21 00:40:57;;;;;;;2.00;1.90;;;6.60;1.00;;;;;;5032946;28;20430;-63
2023/10/21 00:43:42;;;;;;;2.10;2.00;;;6.60;1.00;;;;;;5030952;28;20214;-63
2023/10/21 00:46:17;;;;;;;1.63;1.53;;;6.70;1.00;;;;;;5031855;28;20457;-63
2023/10/21 00:48:44;;;;;;;2.17;2.07;;;6.70;1.00;;;;;;5032694;28;20409;-63
2023/10/21 00:51:10;;;;;;;2.30;2.20;;;6.60;1.00;;;;;;5032695;28;20410;-63
2023/10/21 00:53:36;;;;;;;1.90;1.80;;;6.60;1.00;;;;;;5032647;28;20450;-63
2023/10/21 00:56:03;;;;;;;2.13;2.03;;;6.70;1.00;;;;;;5031621;28;20421;-63
2023/10/21 00:58:32;;;;;;;2.10;2.00;;;6.60;1.00;;;;;;5032571;28;20736;-63
2023/10/21 01:01:06;;;;;;;1.87;1.77;;;6.60;1.00;;;;;;5032246;28;20409;-63
2023/10/21 01:03:32;;;;;;;4.03;1.77;;;6.70;1.00;;;;;;5032514;28;20934;-64
2023/10/21 01:05:59;;;;;;;2.00;1.90;;;6.60;1.00;;;;;;5030123;28;20981;-63
2023/10/21 01:08:24;;;;;;;1.97;1.87;;;6.60;1.00;;;;;;5032628;28;20409;-63
2023/10/21 01:10:50;;;;;;;2.60;2.47;;;6.60;1.00;;;;;;5032562;28;20399;-63
2023/10/21 01:13:16;;;;;;;2.25;2.10;;;6.60;1.00;;;;;;5032333;28;20755;-63
2023/10/21 01:15:42;;;;;;;2.00;1.90;;;6.60;1.00;;;;;;5031547;28;20454;-65
2023/10/21 01:18:08;;;;;;;2.17;2.07;;;6.60;1.00;;;;;;5032210;28;20414;-65
2023/10/21 01:20:39;;;;;;;2.77;2.30;;;6.60;1.00;;;;;;5032672;28;20775;-63
2023/10/21 01:23:09;;;;;;;2.30;2.20;;;6.60;1.00;;;;;;5036252;28;20167;-63
2023/10/21 01:25:35;;;;;;;2.20;2.10;;;6.60;1.00;;;;;;5035442;28;20895;-64
2023/10/21 01:28:01;;;;;;;2.50;2.40;;;6.60;1.00;;;;;;5036175;28;20409;-63
2023/10/21 01:30:27;;;;;;;1.97;1.87;;;6.60;1.00;;;;;;5036095;28;20477;-64
2023/10/21 01:32:53;;;;;;;2.10;2.00;;;6.60;1.00;;;;;;5036323;28;20493;-64
2023/10/21 01:35:19;;;;;;;2.40;2.30;;;6.60;1.00;;;;;;5035122;28;20442;-64
2023/10/21 01:37:45;;;;;;;2.53;2.30;;;6.70;1.00;;;;;;5035313;28;20422;-68
2023/10/21 01:40:12;;;;;;;2.50;2.40;;;6.60;1.00;;;;;;5035992;28;20394;-63
2023/10/21 01:42:41;;;;;;;2.40;2.30;;;6.60;1.00;;;;;;5035916;28;20460;-63
2023/10/21 01:45:08;;;;;;;3.30;2.57;;;6.70;1.00;;;;;;5035055;28;20414;-63
2023/10/21 01:47:35;;;;;;;2.10;2.00;;;6.70;1.00;;;;;;5035937;28;20799;-64
2023/10/21 01:50:02;;;;;;;3.50;2.40;;;6.70;1.00;;;;;;5035717;28;20394;-63
2023/10/21 01:52:28;;;;;;;2.90;2.70;;;6.70;1.00;;;;;;5035461;28;20394;-64
2023/10/21 01:54:54;;;;;;;2.60;2.50;;;6.70;1.00;;;;;;5034497;28;20468;-63
2023/10/21 01:57:20;;;;;;;2.73;2.53;;;6.70;1.00;;;;;;5035697;28;20195;-63
2023/10/21 01:59:45;;;;;;;2.87;2.70;;;6.70;1.00;;;;;;5035679;28;20620;-67
2023/10/21 02:02:11;;;;;;;16.20;3.43;;;6.70;1.00;;;;;;5035722;28;20406;-63
2023/10/21 02:04:37;;;;;;;3.57;2.60;;;6.60;1.00;;;;;;5034583;28;20174;-63
2023/10/21 02:07:04;;;;;;;3.10;2.90;;;6.70;1.00;;;;;;5035329;28;20426;-65
2023/10/21 02:09:29;;;;;;;3.00;2.80;;;6.60;1.00;;;;;;5035395;28;20628;-63
2023/10/21 02:11:55;;;;;;;3.77;3.47;;;6.70;1.00;;;;;;5035144;28;20422;-63
2023/10/21 02:14:22;;;;;;;2.90;2.70;;;6.60;1.00;;;;;;5035333;28;20195;-65
2023/10/21 02:16:54;;;;;;;3.53;3.33;;;6.70;1.00;;;;;;5033460;28;20442;-63
2023/10/21 02:19:20;;;;;;;4.13;3.13;;;6.80;1.00;;;;;;5035253;28;20399;-65
2023/10/21 02:21:47;;;;;;;4.27;3.00;;;6.70;1.00;;;;;;5035178;28;20457;-68
2023/10/21 02:24:12;;;;;;;3.83;3.53;;;6.70;1.00;;;;;;5035230;28;20893;-62
2023/10/21 02:26:38;;;;;;;3.80;3.50;;;6.80;1.00;;;;;;5033653;28;20450;-63
2023/10/21 02:29:04;;;;;;;6.07;3.37;;;6.80;1.00;;;;;;5034968;28;20167;-62
2023/10/21 02:31:30;;;;;;;3.20;2.77;;;6.80;1.00;;;;;;5034748;28;20410;-63
2023/10/21 02:33:57;;;;;;;2.97;2.80;;;6.80;1.00;;;;;;5034059;28;20454;-64
2023/10/21 02:36:24;;;;;;;2.80;2.60;;;6.80;1.00;;;;;;5034016;28;20479;-63
2023/10/21 02:38:53;;;;;;;2.97;2.77;;;6.80;1.00;;;;;;5034948;28;20399;-63
2023/10/21 02:41:19;;;;;;;3.30;3.10;;;6.80;1.00;;;;;;5034864;28;20403;-63
2023/10/21 02:43:45;;;;;;;3.23;3.03;;;6.80;1.00;;;;;;5034845;28;20410;-64
2023/10/21 02:46:13;;;;;;;6.03;3.57;;;6.80;1.00;;;;;;5034028;28;20432;-63
2023/10/21 02:48:39;;;;;;;3.87;3.57;;;6.90;1.00;;;;;;5033045;28;20504;-63
2023/10/21 02:51:16;;;;;;;4.07;3.77;;;7.00;1.00;;;;;;5034651;28;20441;-63
2023/10/21 02:53:42;;;;;;;4.07;3.73;;;7.00;1.00;;;;;;5034700;28;20449;-65
2023/10/21 02:56:09;;;;;;;7.73;4.33;;;7.00;1.00;;;;;;5033723;28;20404;-63
2023/10/21 02:58:35;;;;;;;6.30;3.83;;;6.90;1.00;;;;;;5034437;28;20390;-63
2023/10/21 03:01:15;;;;;;;4.20;3.87;;;7.00;1.00;;;;;;5034543;28;20740;-65
2023/10/21 03:03:43;;;;;;;4.33;3.50;;;7.00;1.00;;;;;;5034582;28;20406;-64
2023/10/21 03:06:09;;;;;;;4.20;3.90;;;7.00;1.00;;;;;;5032932;28;20446;-63
2023/10/21 03:08:36;;;;;;;5.40;4.60;;;7.00;1.00;;;;;;5034267;28;20417;-64
2023/10/21 03:11:03;;;;;;;5.13;4.63;;;7.00;1.00;;;;;;5034327;28;20468;-65
2023/10/21 03:13:33;;;;;;;5.40;4.90;;;7.00;1.00;;;;;;5034401;28;20431;-62
2023/10/21 03:15:59;;;;;;;5.80;5.17;;;7.00;1.00;;;;;;5031965;28;20427;-63
2023/10/21 03:18:25;;;;;;;8.57;4.97;;;7.10;1.00;;;;;;5034221;28;20409;-65
2023/10/21 03:20:51;;;;;;;5.27;4.77;;;7.10;1.00;;;;;;5033999;28;20830;-64
2023/10/21 03:23:18;;;;;;;5.13;4.57;;;7.10;1.00;;;;;;5033644;28;20399;-63
2023/10/21 03:26:04;;;;;;;6.47;4.63;;;7.10;1.00;;;;;;5033063;28;20407;-66
2023/10/21 03:28:30;;;;;;;7.07;5.47;;;7.00;1.00;;;;;;5033644;28;20520;-63
2023/10/21 03:31:00;;;;;;;6.07;5.47;;;7.00;1.00;;;;;;5033938;28;20418;-64
2023/10/21 03:33:27;;;;;;;8.23;5.67;;;7.00;1.00;;;;;;5033802;28;20402;-63
2023/10/21 03:36:00;;;;;;;8.00;5.90;;;7.10;1.00;;;;;;5032707;28;20445;-63
2023/10/21 03:38:26;;;;;;;6.10;5.50;;;7.10;1.00;;;;;;5033403;28;20414;-64
2023/10/21 03:41:16;;;;;;;6.10;5.50;;;7.10;1.00;;;;;;5033608;28;20413;-63
2023/10/21 03:43:42;;;;;;;9.30;6.37;;;7.10;1.00;;;;;;5033227;28;20422;-64
2023/10/21 03:46:09;;;;;;;9.40;5.77;;;7.20;1.00;;;;;;5032734;28;20496;-63
2023/10/21 03:48:36;;;;;;;6.53;5.97;;;7.20;1.00;;;;;;5033623;28;20164;-64
2023/10/21 03:51:06;;;;;;;12.60;6.07;;;7.20;1.00;;;;;;5033581;28;20425;-67
2023/10/21 03:53:33;;;;;;;8.93;6.17;;;7.20;1.00;;;;;;5033599;28;20421;-63
2023/10/21 03:56:00;;;;;;;6.97;5.30;;;7.20;1.00;;;;;;5032508;28;20430;-63
2023/10/21 03:58:26;;;;;;;6.57;5.20;;;7.20;1.00;;;;;;5032962;28;20411;-65
2023/10/21 04:00:53;;;;;;;9.80;5.73;;;7.20;1.00;;;;;;5033533;28;20417;-63
2023/10/21 04:03:20;;;;;;;8.60;5.90;;;7.20;1.00;;;;;;5033241;28;20402;-63
2023/10/21 04:05:45;;;;;;;6.73;6.00;;;7.20;1.00;;;;;;5032182;28;20430;-68
2023/10/21 04:08:11;;;;;;;7.60;5.70;;;7.30;1.00;;;;;;5033436;28;20418;-63
2023/10/21 04:10:37;;;;;;;8.00;5.17;;;7.30;1.00;;;;;;5032294;28;20184;-65
2023/10/21 04:13:03;;;;;;;8.97;5.33;;;7.30;1.00;;;;;;5033270;28;20175;-67
2023/10/21 04:15:31;;;;;;;7.87;5.90;;;7.30;1.00;;;;;;5031707;28;20199;-63
2023/10/21 04:17:57;;;;;;;7.20;6.47;;;7.30;1.00;;;;;;5033490;28;20466;-63
2023/10/21 04:20:23;;;;;;;8.73;6.50;;;7.30;1.00;;;;;;5033063;28;20557;-64
2023/10/21 04:22:49;;;;;;;7.63;6.13;;;7.40;1.00;;;;;;5033112;28;20487;-63
2023/10/21 04:25:14;;;;;;;11.40;6.53;;;7.30;1.00;;;;;;5032136;28;20233;-65
2023/10/21 04:27:40;;;;;;;8.40;6.27;;;7.40;1.00;;;;;;5032983;28;20285;-64
2023/10/21 04:30:07;;;;;;;6.37;5.77;;;7.50;1.00;;;;;;5032942;28;20179;-63
2023/10/21 04:32:33;;;;;;;8.23;7.33;;;7.50;1.00;;;;;;5032890;28;20173;-63
2023/10/21 04:35:00;;;;;;;9.20;6.97;;;7.50;1.00;;;;;;5031536;28;20428;-63
2023/10/21 04:37:26;;;;;;;6.83;6.00;;;7.60;1.00;;;;;;5031738;28;20435;-65
2023/10/21 04:39:54;;;;;;;11.73;6.83;;;7.60;1.00;;;;;;5032747;28;20495;-63
2023/10/21 04:42:20;;;;;;;11.70;6.87;;;7.50;1.00;;;;;;5032943;28;20409;-63
2023/10/21 04:44:46;;;;;;;8.43;7.20;;;7.50;1.00;;;;;;5031900;28;20495;-63
2023/10/21 04:47:12;;;;;;;9.07;6.73;;;7.50;1.00;;;;;;5031682;28;20200;-64
2023/10/21 04:49:38;;;;;;;11.50;6.50;;;7.60;1.00;;;;;;5032649;28;20189;-63
2023/10/21 04:52:04;;;;;;;13.10;9.53;;;7.50;1.00;;;;;;5032684;28;20414;-63
2023/10/21 04:54:30;;;;;;;11.23;8.20;;;7.50;1.00;;;;;;5030607;28;20212;-72
2023/10/21 04:56:55;;;;;;;10.93;7.90;;;7.60;1.00;;;;;;5035308;28;20433;-63
2023/10/21 04:59:21;;;;;;;10.73;7.10;;;7.50;1.00;;;;;;5035775;28;20567;-64
2023/10/21 05:01:47;;;;;;;9.53;7.20;;;7.60;1.00;;;;;;5036633;28;20684;-64
2023/10/21 05:04:12;;;;;;;11.93;7.30;;;7.60;1.00;;;;;;5036680;28;20181;-63
2023/10/21 05:06:38;;;;;;;10.93;7.87;;;7.60;1.00;;;;;;5035632;28;20209;-63
2023/10/21 05:09:04;;;;;;;14.30;8.37;;;7.60;1.00;;;;;;5036603;28;20535;-65
2023/10/21 05:11:30;;;;;;;11.47;7.40;;;7.60;1.00;;;;;;5035956;28;20187;-64
2023/10/21 05:13:56;;;;;;;11.97;7.70;;;7.60;1.00;;;;;;5036343;28;20544;-63
2023/10/21 05:16:22;;;;;;;12.13;8.83;;;7.70;1.00;;;;;;5035600;28;20506;-65
2023/10/21 05:18:48;;;;;;;11.33;8.20;;;7.70;1.00;;;;;;5035336;28;20447;-63
2023/10/21 05:21:14;;;;;;;11.07;8.23;;;7.70;1.00;;;;;;5036345;28;20182;-65
2023/10/21 05:23:40;;;;;;;10.10;7.80;;;7.70;1.00;;;;;;5036343;28;20404;-63
2023/10/21 05:26:05;;;;;;;13.50;8.57;;;7.70;1.00;;;;;;5035167;28;20892;-64
2023/10/21 05:28:31;;;;;;;9.80;7.30;;;7.70;1.00;;;;;;5035241;28;20642;-63
2023/10/21 05:30:57;;;;;;;16.03;8.23;;;7.70;1.00;;;;;;5035957;28;20172;-63
2023/10/21 05:33:24;;;;;;;12.90;8.20;;;7.70;1.00;;;;;;5035902;28;20255;-63
2023/10/21 05:35:49;;;;;;;11.50;7.77;;;7.80;1.00;;;;;;5035040;28;20426;-63
2023/10/21 05:38:15;;;;;;;10.20;7.67;;;7.80;1.00;;;;;;5036114;28;20454;-64
2023/10/21 05:40:43;;;;;;;10.43;7.20;;;7.80;1.00;;;;;;5034806;28;20179;-63
2023/10/21 05:43:09;;;;;;;9.73;6.80;;;7.80;1.00;;;;;;5036036;28;20218;-63
2023/10/21 05:45:35;;;;;;;11.43;7.30;;;7.70;1.00;;;;;;5035088;28;20407;-64
2023/10/21 05:48:00;;;;;;;13.00;8.17;;;7.70;1.00;;;;;;5035630;28;20217;-63
2023/10/21 05:50:26;;;;;;;10.63;7.70;;;7.70;1.00;;;;;;5034288;28;20414;-64
2023/10/21 05:52:52;;;;;;;12.17;8.20;;;7.80;1.00;;;;;;5035955;28;20168;-63
2023/10/21 05:55:18;;;;;;;14.10;7.07;;;7.80;1.00;;;;;;5034735;28;20639;-64
2023/10/21 05:57:44;;;;;;;12.67;8.20;;;7.70;1.00;;;;;;5035625;28;20278;-63
2023/10/21 06:00:10;;;;;;;12.30;7.77;;;7.80;1.00;;;;;;5035640;28;20477;-65
2023/10/21 06:02:36;;;;;;;12.00;7.27;;;7.70;1.00;;;;;;5035505;28;20271;-63
2023/10/21 06:05:05;;;;;;;15.47;8.63;;;7.70;1.00;;;;;;5033996;28;20514;-64
2023/10/21 06:07:31;;;;;;;11.30;8.20;;;7.70;1.00;;;;;;5034994;28;20684;-63
2023/10/21 06:09:57;;;;;;;11.30;7.90;;;7.70;1.00;;;;;;5035467;28;20490;-63
2023/10/21 06:12:22;;;;;;;12.73;8.87;;;7.70;1.00;;;;;;5035317;28;20486;-68
2023/10/21 06:14:48;;;;;;;11.73;7.77;;;7.70;1.00;;;;;;5034307;28;20199;-65
2023/10/21 06:17:14;;;;;;;17.50;8.43;;;7.70;1.00;;;;;;5035207;28;20200;-63
2023/10/21 06:19:39;;;;;;;13.20;7.00;;;7.70;1.00;;;;;;5035425;28;20165;-63
2023/10/21 06:22:06;;;;;;;13.73;9.00;;;7.80;1.00;;;;;;5034994;28;20168;-63
2023/10/21 06:24:32;;;;;;;8.30;7.00;;;7.80;1.00;;;;;;5033963;28;20169;-77
2023/10/21 06:26:58;;;;;;;10.63;8.77;;;7.80;1.00;;;;;;5035290;28;20467;-63
2023/10/21 06:29:24;;;;;;;14.70;8.00;;;7.80;1.00;;;;;;5035165;28;20537;-64
2023/10/21 06:31:50;;;;;;;13.87;8.27;;;7.80;1.00;;;;;;5035122;28;20449;-64
2023/10/21 06:34:16;;;;;;;11.43;8.20;;;7.80;1.00;;;;;;5034991;28;20297;-63
2023/10/21 06:36:42;;;;;;;11.07;8.20;;;7.80;1.00;;;;;;5034090;28;20447;-62
2023/10/21 06:39:07;;;;;;;13.07;7.93;;;7.90;1.00;;;;;;5035006;28;20183;-63
2023/10/21 06:41:33;;;;;;;12.00;8.50;;;7.90;1.00;;;;;;5034574;28;20192;-63
2023/10/21 06:43:59;;;;;;;14.50;8.17;;;7.90;1.00;;;;;;5034914;28;20255;-63
2023/10/21 06:46:25;;;;;;;11.93;8.10;;;8.00;1.00;;;;;;5032583;28;20576;-67
2023/10/21 06:48:51;;;;;;;10.50;8.10;;;8.00;1.00;;;;;;5034942;28;20635;-63
2023/10/21 06:51:17;;;;;;;13.03;9.50;;;8.00;1.00;;;;;;5033500;28;20429;-63
2023/10/21 06:53:43;;;;;;;14.40;9.10;;;8.00;1.00;;;;;;5034777;28;20385;-69
2023/10/21 06:56:14;;;;;;;14.70;9.37;;;8.00;1.00;;;;;;5033819;28;20266;-63
2023/10/21 06:58:40;;;;;;;14.67;9.77;;;8.10;1.00;;;;;;5033120;28;21158;-63
2023/10/21 07:01:07;;;;;;;13.80;8.30;;;8.10;1.00;;;;;;5033331;28;20447;-64
2023/10/21 07:03:33;;;;;;;16.13;9.63;;;8.10;1.00;;;;;;5034807;28;20765;-63
2023/10/21 07:05:58;;;;;;;17.90;10.17;;;8.20;1.00;;;;;;5033444;28;20450;-63
2023/10/21 07:08:24;;;;;;;12.60;8.70;;;8.20;1.00;;;;;;5033187;28;20405;-64
2023/10/21 07:10:53;;;;;;;11.70;8.10;;;8.20;1.00;;;;;;5033445;28;20181;-63
2023/10/21 07:13:19;;;;;;;16.70;8.43;;;8.20;1.00;;;;;;5034376;28;20175;-64
2023/10/21 07:15:47;;;;;;;13.70;9.40;;;8.20;1.00;;;;;;5033081;28;20466;-64
2023/10/21 07:18:13;;;;;;;16.33;8.20;;;8.20;1.00;;;;;;5033505;28;20380;-63
2023/10/21 07:20:39;;;;;;;12.47;9.70;;;8.20;1.00;;;;;;5034195;28;20404;-64
2023/10/21 07:23:08;;;;;;;15.07;10.03;;;8.20;1.00;;;;;;5033969;28;20783;-65
2023/10/21 07:25:38;;;;;;;15.50;9.33;;;8.30;1.00;;;;;;5033436;28;20174;-64
2023/10/21 07:28:04;;;;;;;12.40;8.40;;;8.30;1.00;;;;;;5034021;28;20407;-63
2023/10/21 07:30:30;;;;;;;15.50;10.23;;;8.30;1.00;;;;;;5033991;28;20489;-64
2023/10/21 07:32:56;;;;;;;16.20;9.60;;;8.30;1.00;;;;;;5034029;28;20961;-63
2023/10/21 07:35:21;;;;;;;14.37;9.47;;;8.40;1.00;;;;;;5032837;28;20207;-62
2023/10/21 07:37:47;;;;;;;18.13;9.27;;;8.30;1.00;;;;;;5033547;28;20239;-64
2023/10/21 07:40:13;;;;;;;18.70;9.27;;;8.30;1.00;;;;;;5033849;28;20193;-63
2023/10/21 07:42:40;;;;;;;13.63;9.20;;;8.30;1.00;;;;;;5033813;28;20194;-65
2023/10/21 07:45:06;;;;;;;15.97;9.50;;;8.30;1.00;;;;;;5032765;28;20410;-67
2023/10/21 07:47:37;;;;;;;12.43;8.37;;;8.30;1.00;;;;;;5033920;28;20406;-63
2023/10/21 07:50:07;;;;;;;13.60;9.43;;;8.30;1.00;;;;;;5033702;28;20418;-63
2023/10/21 07:52:36;;;;;;;15.50;10.27;;;8.40;1.00;;;;;;5033690;28;20432;-63
2023/10/21 07:55:02;;;;;;;13.90;9.00;;;8.30;1.00;;;;;;5031114;28;20426;-64
2023/10/21 07:57:29;;;;;;;16.20;9.70;;;8.30;1.00;;;;;;5033324;28;20448;-63
2023/10/21 07:59:54;;;;;;;17.07;10.13;;;8.20;1.00;;;;;;5033485;28;20376;-63
2023/10/21 08:02:21;;;;;;;15.77;9.70;;;8.20;1.00;;;;;;5033615;28;20421;-63
2023/10/21 08:04:47;;;;;;;15.10;9.17;;;8.30;1.00;;;;;;5032506;28;20181;-64
2023/10/21 08:07:12;;;;;;;16.83;9.80;;;8.30;1.00;;;;;;5033128;28;20422;-63
2023/10/21 08:09:38;;;;;;;15.53;9.37;;;8.40;1.00;;;;;;5033298;28;20194;-64
2023/10/21 08:12:04;;;;;;;14.43;9.80;;;8.40;1.00;;;;;;5033380;28;20178;-63
2023/10/21 08:14:31;;;;;;;14.00;9.70;;;8.40;1.00;;;;;;5031397;28;20210;-71
2023/10/21 08:16:58;;;;;;;14.30;10.00;;;8.50;1.00;;;;;;5032744;28;20418;-64
2023/10/21 08:19:24;;;;;;;17.80;10.47;;;8.60;1.00;;;;;;5033133;28;20410;-63
2023/10/21 08:21:50;;;;;;;12.60;9.40;;;8.70;1.00;;;;;;5033170;28;20381;-65
2023/10/21 08:24:16;;;;;;;13.60;9.87;;;8.70;1.00;;;;;;5033174;28;20380;-63
2023/10/21 08:26:42;;;;;;;17.07;10.70;;;8.70;1.00;;;;;;5032207;28;20199;-63
2023/10/21 08:29:10;;;;;;;13.10;9.70;;;8.70;1.00;;;;;;5032942;28;20193;-64
2023/10/21 08:31:35;;;;;;;13.53;9.43;;;8.70;1.00;;;;;;5033123;28;20209;-63
2023/10/21 08:34:01;;;;;;;14.67;11.07;;;8.80;1.00;;;;;;5032451;28;20477;-64
2023/10/21 08:36:27;;;;;;;15.20;10.10;;;8.80;1.00;;;;;;5032040;28;20262;-64
2023/10/21 08:38:53;;;;;;;12.33;9.07;;;8.80;1.00;;;;;;5032877;28;20186;-63
2023/10/21 08:41:19;;;;;;;16.10;9.20;;;8.80;1.00;;;;;;5032786;28;20167;-65
2023/10/21 08:43:47;;;;;;;16.07;9.80;;;8.80;1.00;;;;;;5032652;28;20443;-64
2023/10/21 08:46:15;;;;;;;12.17;9.17;;;8.90;1.00;;;;;;5032344;28;20183;-63
2023/10/21 08:48:44;;;;;;;11.87;9.70;;;9.00;1.00;;;;;;5032806;28;20708;-63
2023/10/21 08:51:13;;;;;;;11.13;9.10;;;9.00;1.00;;;;;;5032108;28;20377;-64
2023/10/21 08:53:41;;;;;;;14.40;9.53;;;9.00;1.00;;;;;;5032660;28;20425;-63
2023/10/21 08:56:06;;;;;;;12.10;10.50;;;9.00;1.00;;;;;;5032071;28;20421;-63
2023/10/21 08:58:32;;;;;;;13.90;9.57;;;9.00;1.00;;;;;;5031701;28;20881;-63
2023/10/21 09:00:59;;;;;;;13.37;9.27;;;9.10;1.00;;;;;;5031820;28;20194;-64
2023/10/21 09:03:25;;;;;;;11.90;9.57;;;9.10;1.00;;;;;;5032599;28;20166;-65
2023/10/21 09:06:11;;;;;;;14.50;9.90;;;9.10;1.00;;;;;;5031738;28;20436;-64
2023/10/21 09:08:41;;;;;;;12.43;10.83;;;9.20;1.00;;;;;;5032188;28;20417;-63
2023/10/21 09:11:07;;;;;;;13.63;9.83;;;9.20;1.00;;;;;;5032624;28;20393;-64
2023/10/21 09:13:37;;;;;;;15.53;9.10;;;9.20;1.00;;;;;;5031331;28;20400;-64
2023/10/21 09:16:20;;;;;;;11.37;8.00;;;9.10;1.00;;;;;;5031761;28;20889;-63
2023/10/21 09:19:00;;;;;;;13.87;10.07;;;9.20;1.00;;;;;;5031240;28;20377;-63
2023/10/21 09:21:43;;;;;;;12.57;8.77;;;9.20;1.00;;;;;;5032501;28;20407;-63
2023/10/21 09:24:11;;;;;;;11.80;8.80;;;9.20;1.00;;;;;;5032531;28;20387;-63
2023/10/21 09:26:41;;;;;;;18.63;10.47;;;9.20;1.00;;;;;;5031392;28;20448;-65
2023/10/21 09:29:10;;;;;;;21.73;9.83;;;9.30;1.00;;;;;;5032203;28;20446;-63
2023/10/21 09:31:53;;;;;;;12.40;9.63;;;9.30;1.00;;;;;;5032536;28;20514;-63
2023/10/21 09:34:25;;;;;;;12.10;9.30;;;9.40;1.00;;;;;;5032555;28;20549;-63
2023/10/21 09:37:08;;;;;;;12.13;9.27;;;9.30;1.00;;;;;;5031853;28;20399;-65
2023/10/21 09:39:43;;;;;;;12.30;9.17;;;9.40;1.00;;;;;;5032432;28;20408;-63
2023/10/21 09:42:08;;;;;;;11.50;9.53;;;9.50;1.00;;;;;;5033889;28;20387;-63
2023/10/21 09:44:35;;;;;;;11.23;8.77;;;9.60;1.00;;;;;;5034854;28;20381;-64
2023/10/21 09:47:05;;;;;;;11.50;9.43;;;9.60;1.00;;;;;;5036064;28;20734;-68
2023/10/21 09:49:39;;;;;;;14.10;10.30;;;9.70;1.00;;;;;;5035964;28;20770;-63
2023/10/21 09:52:13;;;;;;;13.40;9.63;;;9.80;1.00;;;;;;5035821;28;20380;-63
2023/10/21 09:55:10;;;;;;;16.87;10.20;;;9.80;1.00;;;;;;5034774;28;20465;-63
2023/10/21 09:57:40;;;;;;;12.70;8.83;;;9.80;1.00;;;;;;5035828;28;20753;-63
2023/10/21 10:00:08;;;;;;;15.20;10.70;;;9.80;1.00;;;;;;5035653;28;20472;-64
2023/10/21 10:02:36;;;;;;;14.40;10.33;;;9.90;1.00;;;;;;5035165;28;20707;-63
2023/10/21 10:05:07;;;;;;;13.30;10.23;;;9.90;1.00;;;;;;5035126;28;20396;-67
2023/10/21 10:07:36;;;;;;;14.77;10.43;;;9.80;1.00;;;;;;5035726;28;20400;-63
2023/10/21 10:10:07;;;;;;;12.37;10.20;;;9.90;1.00;;;;;;5035439;28;20476;-64
2023/10/21 10:12:38;;;;;;;13.17;10.00;;;9.90;1.00;;;;;;5035483;28;20406;-63
2023/10/21 10:15:33;;;;;;;16.20;11.07;;;9.90;1.00;;;;;;5033408;28;20964;-64
2023/10/21 10:18:05;;;;;;;16.77;9.40;;;10.00;1.00;;;;;;5035317;28;20373;-66
2023/10/21 10:20:31;;;;;;;10.57;7.80;;;10.10;1.00;;;;;;5035367;28;20437;-63
2023/10/21 10:23:07;;;;;;;12.40;9.23;;;10.10;1.00;;;;;;5033611;28;20389;-63
2023/10/21 10:25:35;;;;;;;11.60;8.43;;;10.10;1.00;;;;;;5033377;28;20959;-65
2023/10/21 10:28:10;;;;;;;8.27;7.47;;;10.10;1.00;;;;;;5035135;28;20403;-63
2023/10/21 10:30:43;;;;;;;10.33;8.17;;;10.10;1.00;;;;;;5035108;28;20372;-64
2023/10/21 10:33:34;;;;;;;10.77;8.63;;;10.10;1.00;;;;;;5035177;28;20384;-64
2023/10/21 10:36:06;;;;;;;12.37;9.67;;;10.10;1.00;;;;;;5034272;28;20428;-65
2023/10/21 10:38:41;;;;;;;11.37;8.33;;;10.20;1.00;;;;;;5034953;28;20456;-63
2023/10/21 10:41:11;;;;;;;13.77;8.83;;;10.20;1.00;;;;;;5033141;28;20467;-64
2023/10/21 10:43:41;;;;;;;11.40;8.50;;;10.30;1.00;;;;;;5035064;28;20405;-64
2023/10/21 10:46:07;;;;;;;14.63;9.37;;;10.30;1.00;;;;;;5034057;28;20392;-64
2023/10/21 10:48:34;;;;;;;11.33;9.10;;;10.30;1.00;;;;;;5034943;28;20401;-63
2023/10/21 10:51:06;;;;;;;12.07;9.90;;;10.30;1.00;;;;;;5034968;28;20501;-63
2023/10/21 10:53:35;;;;;;;13.90;9.30;;;10.30;1.00;;;;;;5033844;28;20877;-64
2023/10/21 10:56:00;;;;;;;10.83;9.77;;;10.40;1.00;;;;;;5033916;28;20503;-65
2023/10/21 10:58:26;;;;;;;11.37;9.80;;;10.50;1.00;;;;;;5032697;28;20898;-65
2023/10/21 11:00:52;;;;;;;13.70;8.60;;;10.40;1.00;;;;;;5034720;28;20222;-64
2023/10/21 11:03:31;;;;;;;8.27;7.47;;;10.40;1.00;;;;;;5034519;28;20160;-64
2023/10/21 11:05:58;;;;;;;13.97;9.50;;;10.40;1.00;;;;;;5033688;28;20425;-63
2023/10/21 11:08:27;;;;;;;11.23;8.77;;;10.50;1.00;;;;;;5034363;28;20434;-70
2023/10/21 11:11:02;;;;;;;11.47;8.70;;;10.50;1.00;;;;;;5034444;28;20396;-64
2023/10/21 11:13:29;;;;;;;9.40;8.10;;;10.60;1.00;;;;;;5033234;28;20384;-63
2023/10/21 11:15:55;;;;;;;9.60;8.70;;;10.70;1.00;;;;;;5033511;28;20541;-64
2023/10/21 11:18:21;;;;;;;8.43;6.67;;;10.80;1.00;;;;;;5033903;28;20164;-66
2023/10/21 11:20:50;;;;;;;11.00;7.40;;;10.80;1.00;;;;;;5034270;28;20412;-64
2023/10/21 11:23:18;;;;;;;10.03;7.43;;;10.80;1.00;;;;;;5034159;28;20377;-65
2023/10/21 11:25:50;;;;;;;7.70;7.00;;;10.90;1.00;;;;;;5033422;28;20887;-66
2023/10/21 11:28:16;;;;;;;7.63;6.70;;;10.80;1.00;;;;;;5034260;28;20443;-63
2023/10/21 11:30:44;;;;;;;7.50;6.80;;;10.80;1.00;;;;;;5034011;28;20785;-64
2023/10/21 11:33:10;;;;;;;6.97;6.33;;;10.80;1.00;;;;;;5034039;28;20406;-64
2023/10/21 11:35:46;;;;;;;11.43;8.07;;;10.90;1.00;;;;;;5033097;28;20852;-64
2023/10/21 11:38:18;;;;;;;7.90;6.83;;;11.00;1.00;;;;;;5033703;28;20414;-64
2023/10/21 11:40:47;;;;;;;7.73;6.83;;;11.00;1.00;;;;;;5032561;28;20396;-67
2023/10/21 11:43:18;;;;;;;7.20;6.30;;;11.00;1.00;;;;;;5033770;28;20407;-64
2023/10/21 11:45:46;;;;;;;6.30;5.73;;;11.00;1.00;;;;;;5033196;28;20399;-67
2023/10/21 11:48:17;;;;;;;7.77;5.83;;;11.00;1.00;;;;;;5033881;28;20874;-64
2023/10/21 11:50:47;;;;;;;6.40;5.80;;;11.00;1.00;;;;;;5033669;28;20767;-64
2023/10/21 11:53:13;;;;;;;7.83;6.20;;;10.90;1.00;;;;;;5033552;28;20914;-64
2023/10/21 12:17:09;;;;;;;7.47;6.73;;;10.90;99.90;;;;;;5033316;28;20405;-64
2023/10/21 12:40:39;;;;;;;4.70;4.30;;;10.90;99.90;;;;;;5032906;28;20368;-64
2023/10/21 12:45:46;;;;;;;4.60;4.20;;;10.90;99.90;;;;;;5032335;28;20167;-69
2023/10/21 12:48:21;;;;;;;5.03;4.63;;;10.90;99.90;;;;;;5033022;28;20377;-64
2023/10/21 12:50:51;;;;;;;3.97;3.67;;;10.90;99.90;;;;;;5032360;28;20436;-68
2023/10/21 12:53:17;;;;;;;4.43;3.50;;;10.90;99.90;;;;;;5032619;28;20402;-64
2023/10/21 12:55:46;;;;;;;4.20;3.90;;;10.80;99.90;;;;;;5031993;28;20432;-64
2023/10/21 12:58:12;;;;;;;3.97;3.60;;;10.80;99.90;;;;;;5032912;28;20381;-64
2023/10/21 13:00:43;;;;;;;4.10;3.53;;;10.80;99.90;;;;;;5032648;28;20419;-64
2023/10/21 13:03:10;;;;;;;3.03;2.80;;;10.80;99.90;;;;;;5032667;28;20169;-65
2023/10/21 13:05:37;;;;;;;4.57;3.43;;;10.90;99.90;;;;;;5031933;28;20980;-65
2023/10/21 13:08:07;;;;;;;3.00;2.80;;;10.90;99.90;;;;;;5032195;28;20396;-64
2023/10/21 13:10:33;;;;;;;2.40;2.20;;;10.90;99.90;;;;;;5032656;28;20730;-64
2023/10/21 13:13:03;;;;;;;2.50;2.30;;;10.90;99.90;;;;;;5032861;28;20468;-64
2023/10/21 13:15:32;;;;;;;2.83;2.40;;;10.90;99.90;;;;;;5031916;28;20420;-64
2023/10/21 13:17:58;;;;;;;2.70;2.50;;;10.80;99.90;;;;;;5035307;28;20389;-64
2023/10/21 13:20:24;;;;;;;2.40;2.20;;;10.80;99.90;;;;;;5036582;28;20376;-67
2023/10/21 13:22:54;;;;;;;2.20;2.03;;;10.80;99.90;;;;;;5036602;28;20410;-64
2023/10/21 13:25:20;;;;;;;2.57;2.13;;;10.80;99.90;;;;;;5035678;28;20172;-65
2023/10/21 13:27:47;;;;;;;2.30;2.10;;;10.80;99.90;;;;;;5035757;28;20388;-66
2023/10/21 13:30:15;;;;;;;2.43;2.23;;;10.70;99.90;;;;;;5035175;28;20449;-65
2023/10/21 13:32:46;;;;;;;2.83;2.63;;;10.70;99.90;;;;;;5035104;28;20882;-64
2023/10/21 13:35:14;;;;;;;2.30;2.20;;;10.70;99.90;;;;;;5034261;28;21022;-65
2023/10/21 13:37:43;;;;;;;2.90;2.70;;;10.70;99.90;;;;;;5036149;28;20870;-66
2023/10/21 13:40:16;;;;;;;3.23;2.63;;;10.70;99.90;;;;;;5036340;28;20380;-64
2023/10/21 13:42:45;;;;;;;2.40;2.30;;;10.70;99.90;;;;;;5036125;28;20381;-66
2023/10/21 13:45:21;;;;;;;2.87;2.67;;;10.70;99.90;;;;;;5035414;28;20421;-64
2023/10/21 13:47:48;;;;;;;3.20;2.90;;;10.70;99.90;;;;;;5035344;28;20954;-65